sensor_id;sensor_type;location;lat;lon;timestamp;pressure;altitude;pressure_sealevel;temperature;humidity
64602;BME280;51013;42.630;23.192;2023-02-03T00:00:26;92477.47;;;1.11;80.35
64602;BME280;51013;42.630;23.192;2023-02-03T00:02:54;92484.63;;;1.19;82.31
64602;BME280;51013;42.630;23.192;2023-02-03T00:05:21;92473.72;;;0.98;83.07
64602;BME280;51013;42.630;23.192;2023-02-03T00:07:48;92482.53;;;0.97;83.46
64602;BME280;51013;42.630;23.192;2023-02-03T00:10:15;92485.81;;;1.08;83.32
64602;BME280;51013;42.630;23.192;2023-02-03T00:12:46;92497.66;;;1.14;83.74
64602;BME280;51013;42.630;23.192;2023-02-03T00:15:12;92502.25;;;1.17;83.75
64602;BME280;51013;42.630;23.192;2023-02-03T00:17:40;92487.03;;;1.16;84.81
64602;BME280;51013;42.630;23.192;2023-02-03T00:20:08;92486.91;;;1.02;83.01
64602;BME280;51013;42.630;23.192;2023-02-03T00:22:35;92494.19;;;0.95;84.83
64602;BME280;51013;42.630;23.192;2023-02-03T00:25:02;92492.44;;;0.90;86.44
64602;BME280;51013;42.630;23.192;2023-02-03T00:27:30;92496.94;;;0.79;85.94
64602;BME280;51013;42.630;23.192;2023-02-03T00:29:57;92492.78;;;0.78;84.81
64602;BME280;51013;42.630;23.192;2023-02-03T00:32:23;92504.88;;;0.88;85.53
64602;BME280;51013;42.630;23.192;2023-02-03T00:34:51;92506.84;;;0.96;84.57
64602;BME280;51013;42.630;23.192;2023-02-03T00:37:18;92507.69;;;0.92;83.90
64602;BME280;51013;42.630;23.192;2023-02-03T00:39:45;92509.41;;;1.02;83.97
64602;BME280;51013;42.630;23.192;2023-02-03T00:42:12;92515.63;;;1.00;83.12
64602;BME280;51013;42.630;23.192;2023-02-03T00:44:39;92517.72;;;0.98;82.91
64602;BME280;51013;42.630;23.192;2023-02-03T00:47:05;92514.19;;;0.89;80.80
64602;BME280;51013;42.630;23.192;2023-02-03T00:49:32;92506.28;;;0.75;80.00
64602;BME280;51013;42.630;23.192;2023-02-03T00:52:01;92510.38;;;0.76;79.28
64602;BME280;51013;42.630;23.192;2023-02-03T00:54:27;92513.59;;;0.63;79.26
64602;BME280;51013;42.630;23.192;2023-02-03T00:56:54;92523.53;;;0.51;81.85
64602;BME280;51013;42.630;23.192;2023-02-03T00:59:20;92506.28;;;0.36;82.55
64602;BME280;51013;42.630;23.192;2023-02-03T01:01:47;92531.72;;;0.63;82.75
64602;BME280;51013;42.630;23.192;2023-02-03T01:04:15;92530.25;;;0.81;83.36
64602;BME280;51013;42.630;23.192;2023-02-03T01:06:42;92532.56;;;0.83;81.85
64602;BME280;51013;42.630;23.192;2023-02-03T01:09:10;92522.50;;;0.81;80.89
64602;BME280;51013;42.630;23.192;2023-02-03T01:11:37;92530.75;;;0.83;81.13
64602;BME280;51013;42.630;23.192;2023-02-03T01:14:05;92535.00;;;0.69;82.08
64602;BME280;51013;42.630;23.192;2023-02-03T01:16:31;92538.47;;;0.59;82.17
64602;BME280;51013;42.630;23.192;2023-02-03T01:19:02;92537.41;;;0.60;83.34
64602;BME280;51013;42.630;23.192;2023-02-03T01:21:29;92539.94;;;0.31;83.53
64602;BME280;51013;42.630;23.192;2023-02-03T01:23:58;92526.97;;;0.36;84.01
64602;BME280;51013;42.630;23.192;2023-02-03T01:26:26;92534.94;;;0.45;84.29
64602;BME280;51013;42.630;23.192;2023-02-03T01:28:55;92539.13;;;0.35;84.85
64602;BME280;51013;42.630;23.192;2023-02-03T01:31:23;92537.22;;;0.46;84.47
64602;BME280;51013;42.630;23.192;2023-02-03T01:33:52;92540.81;;;0.50;82.80
64602;BME280;51013;42.630;23.192;2023-02-03T01:36:21;92547.56;;;0.46;83.26
64602;BME280;51013;42.630;23.192;2023-02-03T01:38:48;92549.19;;;0.37;82.18
64602;BME280;51013;42.630;23.192;2023-02-03T01:41:17;92554.94;;;0.29;83.94
64602;BME280;51013;42.630;23.192;2023-02-03T01:43:47;92480.47;;;-0.09;83.52
64602;BME280;51013;42.630;23.192;2023-02-03T01:46:24;92522.78;;;0.01;83.23
64602;BME280;51013;42.630;23.192;2023-02-03T01:48:52;92552.13;;;0.20;82.99
64602;BME280;51013;42.630;23.192;2023-02-03T01:51:21;92533.53;;;0.18;83.98
64602;BME280;51013;42.630;23.192;2023-02-03T01:53:49;92514.34;;;-0.15;82.91
64602;BME280;51013;42.630;23.192;2023-02-03T01:56:17;92547.78;;;0.10;81.82
64602;BME280;51013;42.630;23.192;2023-02-03T01:58:46;92549.06;;;0.13;82.30
64602;BME280;51013;42.630;23.192;2023-02-03T02:01:14;92559.91;;;0.10;82.69
64602;BME280;51013;42.630;23.192;2023-02-03T02:03:43;92533.81;;;0.16;82.60
64602;BME280;51013;42.630;23.192;2023-02-03T02:06:13;92540.31;;;0.04;82.36
64602;BME280;51013;42.630;23.192;2023-02-03T02:08:43;92549.31;;;0.11;81.80
64602;BME280;51013;42.630;23.192;2023-02-03T02:11:12;92561.72;;;0.14;82.34
64602;BME280;51013;42.630;23.192;2023-02-03T02:13:40;92561.47;;;0.11;83.03
64602;BME280;51013;42.630;23.192;2023-02-03T02:16:14;92561.75;;;0.09;82.48
64602;BME280;51013;42.630;23.192;2023-02-03T02:22:05;92573.94;;;-0.02;80.75
64602;BME280;51013;42.630;23.192;2023-02-03T02:25:18;92566.44;;;-0.03;82.64
64602;BME280;51013;42.630;23.192;2023-02-03T02:28:21;92581.38;;;0.05;83.41
64602;BME280;51013;42.630;23.192;2023-02-03T02:31:15;92575.66;;;0.18;82.61
64602;BME280;51013;42.630;23.192;2023-02-03T02:33:53;92587.53;;;0.19;82.83
64602;BME280;51013;42.630;23.192;2023-02-03T02:36:28;92606.69;;;0.08;81.98
64602;BME280;51013;42.630;23.192;2023-02-03T02:39:00;92612.09;;;0.17;80.99
64602;BME280;51013;42.630;23.192;2023-02-03T02:41:34;92604.13;;;0.03;81.73
64602;BME280;51013;42.630;23.192;2023-02-03T02:44:08;92580.78;;;-0.36;81.06
64602;BME280;51013;42.630;23.192;2023-02-03T02:46:39;92570.91;;;-0.24;81.72
64602;BME280;51013;42.630;23.192;2023-02-03T02:49:13;92591.00;;;-0.06;82.59
64602;BME280;51013;42.630;23.192;2023-02-03T02:51:43;92579.34;;;0.02;82.16
64602;BME280;51013;42.630;23.192;2023-02-03T02:54:15;92591.16;;;0.13;82.66
64602;BME280;51013;42.630;23.192;2023-02-03T02:56:47;92609.81;;;0.05;81.43
64602;BME280;51013;42.630;23.192;2023-02-03T02:59:15;92597.69;;;0.01;80.93
64602;BME280;51013;42.630;23.192;2023-02-03T03:01:42;92609.31;;;-0.02;81.38
64602;BME280;51013;42.630;23.192;2023-02-03T03:04:13;92603.38;;;-0.03;81.87
64602;BME280;51013;42.630;23.192;2023-02-03T03:06:44;92613.72;;;-0.08;81.33
64602;BME280;51013;42.630;23.192;2023-02-03T03:09:17;92594.38;;;-0.21;82.55
64602;BME280;51013;42.630;23.192;2023-02-03T03:11:49;92612.69;;;-0.07;81.20
64602;BME280;51013;42.630;23.192;2023-02-03T03:14:18;92626.09;;;-0.05;81.60
64602;BME280;51013;42.630;23.192;2023-02-03T03:16:47;92618.13;;;-0.13;80.71
64602;BME280;51013;42.630;23.192;2023-02-03T03:19:20;92624.06;;;-0.13;80.70
64602;BME280;51013;42.630;23.192;2023-02-03T03:21:51;92627.94;;;-0.21;81.37
64602;BME280;51013;42.630;23.192;2023-02-03T03:24:23;92603.47;;;-0.33;81.44
64602;BME280;51013;42.630;23.192;2023-02-03T03:26:56;92629.47;;;-0.14;81.26
64602;BME280;51013;42.630;23.192;2023-02-03T03:29:29;92641.63;;;-0.10;81.73
64602;BME280;51013;42.630;23.192;2023-02-03T03:31:57;92609.63;;;-0.14;81.64
64602;BME280;51013;42.630;23.192;2023-02-03T03:34:25;92634.63;;;-0.04;81.17
64602;BME280;51013;42.630;23.192;2023-02-03T03:36:56;92633.91;;;-0.20;80.71
64602;BME280;51013;42.630;23.192;2023-02-03T03:39:25;92629.78;;;-0.21;81.97
64602;BME280;51013;42.630;23.192;2023-02-03T03:41:57;92625.66;;;-0.27;83.45
64602;BME280;51013;42.630;23.192;2023-02-03T03:44:29;92634.66;;;-0.14;83.17
64602;BME280;51013;42.630;23.192;2023-02-03T03:47:02;92627.94;;;-0.15;83.40
64602;BME280;51013;42.630;23.192;2023-02-03T03:49:33;92630.75;;;-0.07;81.48
64602;BME280;51013;42.630;23.192;2023-02-03T03:52:03;92633.56;;;0.07;82.31
64602;BME280;51013;42.630;23.192;2023-02-03T03:54:32;92624.00;;;0.08;81.72
64602;BME280;51013;42.630;23.192;2023-02-03T03:57:04;92619.88;;;0.02;80.26
64602;BME280;51013;42.630;23.192;2023-02-03T03:59:36;92618.59;;;-0.01;81.67
64602;BME280;51013;42.630;23.192;2023-02-03T04:02:04;92613.16;;;0.11;80.96
64602;BME280;51013;42.630;23.192;2023-02-03T04:04:35;92592.06;;;-0.12;80.89
64602;BME280;51013;42.630;23.192;2023-02-03T04:07:03;92617.03;;;0.08;79.70
64602;BME280;51013;42.630;23.192;2023-02-03T04:09:30;92608.50;;;0.08;79.79
64602;BME280;51013;42.630;23.192;2023-02-03T04:32:35;92648.56;;;0.65;76.59
64602;BME280;51013;42.630;23.192;2023-02-03T04:35:02;92649.03;;;0.72;76.21
64602;BME280;51013;42.630;23.192;2023-02-03T04:37:29;92634.06;;;0.64;78.08
64602;BME280;51013;42.630;23.192;2023-02-03T04:39:56;92644.13;;;0.71;78.49
64602;BME280;51013;42.630;23.192;2023-02-03T04:42:23;92653.28;;;0.53;77.16
64602;BME280;51013;42.630;23.192;2023-02-03T04:44:50;92665.06;;;0.14;77.70
64602;BME280;51013;42.630;23.192;2023-02-03T04:47:17;92664.34;;;-0.02;78.83
64602;BME280;51013;42.630;23.192;2023-02-03T04:49:46;92670.31;;;-0.22;78.97
64602;BME280;51013;42.630;23.192;2023-02-03T04:52:12;92665.63;;;-0.04;79.00
64602;BME280;51013;42.630;23.192;2023-02-03T04:54:39;92673.41;;;-0.25;79.51
64602;BME280;51013;42.630;23.192;2023-02-03T04:57:06;92676.00;;;-0.25;79.63
64602;BME280;51013;42.630;23.192;2023-02-03T04:59:33;92672.63;;;-0.10;80.26
64602;BME280;51013;42.630;23.192;2023-02-03T05:02:01;92637.56;;;-0.42;80.04
64602;BME280;51013;42.630;23.192;2023-02-03T05:04:28;92666.47;;;-0.24;80.29
64602;BME280;51013;42.630;23.192;2023-02-03T05:06:56;92694.59;;;-0.28;80.00
64602;BME280;51013;42.630;23.192;2023-02-03T05:09:23;92690.22;;;-0.32;80.16
64602;BME280;51013;42.630;23.192;2023-02-03T05:11:50;92682.22;;;-0.36;80.58
64602;BME280;51013;42.630;23.192;2023-02-03T05:14:17;92692.28;;;-0.39;80.72
64602;BME280;51013;42.630;23.192;2023-02-03T05:16:44;92694.09;;;-0.40;81.37
64602;BME280;51013;42.630;23.192;2023-02-03T05:19:11;92693.31;;;-0.35;81.77
64602;BME280;51013;42.630;23.192;2023-02-03T05:21:37;92697.41;;;-0.19;81.47
64602;BME280;51013;42.630;23.192;2023-02-03T05:24:06;92701.06;;;-0.20;81.09
64602;BME280;51013;42.630;23.192;2023-02-03T05:26:33;92706.97;;;-0.14;80.92
64602;BME280;51013;42.630;23.192;2023-02-03T05:29:00;92711.06;;;-0.08;79.60
64602;BME280;51013;42.630;23.192;2023-02-03T05:31:26;92718.63;;;-0.32;80.08
64602;BME280;51013;42.630;23.192;2023-02-03T05:33:53;92721.47;;;-0.44;80.14
64602;BME280;51013;42.630;23.192;2023-02-03T06:11:57;92763.50;;;0.13;77.81
64602;BME280;51013;42.630;23.192;2023-02-03T06:14:23;92710.59;;;-0.15;76.96
64602;BME280;51013;42.630;23.192;2023-02-03T06:16:50;92753.19;;;-0.03;77.28
64602;BME280;51013;42.630;23.192;2023-02-03T06:19:16;92760.69;;;0.04;77.71
64602;BME280;51013;42.630;23.192;2023-02-03T06:21:43;92770.00;;;0.00;78.31
64602;BME280;51013;42.630;23.192;2023-02-03T06:24:11;92768.69;;;-0.23;77.49
64602;BME280;51013;42.630;23.192;2023-02-03T06:26:37;92762.22;;;-0.21;78.04
64602;BME280;51013;42.630;23.192;2023-02-03T06:29:05;92742.09;;;-0.49;77.34
64602;BME280;51013;42.630;23.192;2023-02-03T06:31:32;92771.78;;;-0.31;78.06
64602;BME280;51013;42.630;23.192;2023-02-03T06:33:59;92775.16;;;-0.26;78.69
64602;BME280;51013;42.630;23.192;2023-02-03T06:36:26;92776.69;;;-0.40;77.39
64602;BME280;51013;42.630;23.192;2023-02-03T06:38:53;92771.53;;;-0.45;78.15
64602;BME280;51013;42.630;23.192;2023-02-03T06:41:20;92783.16;;;-0.48;79.26
64602;BME280;51013;42.630;23.192;2023-02-03T06:43:51;92791.69;;;-0.42;79.80
64602;BME280;51013;42.630;23.192;2023-02-03T06:46:19;92790.91;;;-0.43;79.58
64602;BME280;51013;42.630;23.192;2023-02-03T06:48:46;92754.72;;;-0.73;79.76
64602;BME280;51013;42.630;23.192;2023-02-03T06:51:13;92794.50;;;-0.44;78.16
64602;BME280;51013;42.630;23.192;2023-02-03T06:53:39;92785.47;;;-0.51;79.16
64602;BME280;51013;42.630;23.192;2023-02-03T06:56:06;92787.00;;;-0.55;80.34
64602;BME280;51013;42.630;23.192;2023-02-03T06:58:33;92787.53;;;-0.53;81.02
64602;BME280;51013;42.630;23.192;2023-02-03T07:00:59;92796.31;;;-0.39;78.99
64602;BME280;51013;42.630;23.192;2023-02-03T07:03:27;92785.47;;;-0.36;79.05
64602;BME280;51013;42.630;23.192;2023-02-03T07:05:54;92803.56;;;-0.36;79.56
64602;BME280;51013;42.630;23.192;2023-02-03T07:08:21;92785.97;;;-0.29;79.28
64602;BME280;51013;42.630;23.192;2023-02-03T07:10:52;92786.78;;;-0.23;79.73
64602;BME280;51013;42.630;23.192;2023-02-03T07:13:18;92796.06;;;-0.22;79.41
64602;BME280;51013;42.630;23.192;2023-02-03T07:15:46;92805.34;;;-0.21;78.72
64602;BME280;51013;42.630;23.192;2023-02-03T07:18:12;92796.06;;;-0.22;77.74
64602;BME280;51013;42.630;23.192;2023-02-03T07:20:41;92797.09;;;-0.13;79.03
64602;BME280;51013;42.630;23.192;2023-02-03T07:23:08;92791.16;;;-0.13;76.87
64602;BME280;51013;42.630;23.192;2023-02-03T07:25:34;92808.47;;;-0.04;77.68
64602;BME280;51013;42.630;23.192;2023-02-03T07:28:01;92807.16;;;0.09;78.04
64602;BME280;51013;42.630;23.192;2023-02-03T07:30:28;92807.94;;;0.10;77.25
64602;BME280;51013;42.630;23.192;2023-02-03T07:32:54;92797.34;;;0.01;77.91
64602;BME280;51013;42.630;23.192;2023-02-03T07:35:21;92800.22;;;-0.06;76.43
64602;BME280;51013;42.630;23.192;2023-02-03T07:37:49;92810.25;;;-0.25;75.70
64602;BME280;51013;42.630;23.192;2023-02-03T07:40:16;92800.97;;;-0.26;76.54
64602;BME280;51013;42.630;23.192;2023-02-03T07:42:44;92808.47;;;-0.24;75.92
64602;BME280;51013;42.630;23.192;2023-02-03T07:45:13;92798.66;;;-0.43;76.90
64602;BME280;51013;42.630;23.192;2023-02-03T07:47:40;92819.56;;;-0.29;76.05
64602;BME280;51013;42.630;23.192;2023-02-03T07:50:08;92823.69;;;-0.28;75.87
64602;BME280;51013;42.630;23.192;2023-02-03T07:52:35;92816.72;;;-0.27;76.05
64602;BME280;51013;42.630;23.192;2023-02-03T07:55:04;92790.63;;;-0.31;76.06
64602;BME280;51013;42.630;23.192;2023-02-03T07:57:30;92808.97;;;-0.27;76.05
64602;BME280;51013;42.630;23.192;2023-02-03T07:59:57;92811.56;;;-0.27;77.33
64602;BME280;51013;42.630;23.192;2023-02-03T08:02:24;92817.50;;;-0.22;76.67
64602;BME280;51013;42.630;23.192;2023-02-03T08:04:50;92817.50;;;-0.11;75.01
64602;BME280;51013;42.630;23.192;2023-02-03T08:07:17;92823.94;;;-0.29;73.58
64602;BME280;51013;42.630;23.192;2023-02-03T08:09:44;92827.56;;;-0.15;76.48
64602;BME280;51013;42.630;23.192;2023-02-03T08:12:12;92821.13;;;-0.07;75.53
64602;BME280;51013;42.630;23.192;2023-02-03T08:14:39;92826.03;;;-0.01;74.70
64602;BME280;51013;42.630;23.192;2023-02-03T08:17:05;92822.66;;;-0.01;72.01
64602;BME280;51013;42.630;23.192;2023-02-03T08:19:32;92828.09;;;-0.03;72.46
64602;BME280;51013;42.630;23.192;2023-02-03T08:21:59;92817.50;;;-0.01;74.08
64602;BME280;51013;42.630;23.192;2023-02-03T08:24:26;92821.09;;;0.13;73.06
64602;BME280;51013;42.630;23.192;2023-02-03T08:26:53;92823.16;;;0.32;74.47
64602;BME280;51013;42.630;23.192;2023-02-03T08:29:21;92818.50;;;0.34;74.00
64602;BME280;51013;42.630;23.192;2023-02-03T08:31:48;92819.53;;;0.38;75.17
64602;BME280;51013;42.630;23.192;2023-02-03T08:34:15;92819.50;;;0.53;74.83
64602;BME280;51013;42.630;23.192;2023-02-03T08:36:42;92814.59;;;0.52;73.18
64602;BME280;51013;42.630;23.192;2023-02-03T08:39:09;92809.47;;;0.31;73.92
64602;BME280;51013;42.630;23.192;2023-02-03T08:41:36;92834.25;;;0.48;73.42
64602;BME280;51013;42.630;23.192;2023-02-03T08:44:02;92838.88;;;0.56;72.50
64602;BME280;51013;42.630;23.192;2023-02-03T08:46:31;92849.75;;;0.63;72.11
64602;BME280;51013;42.630;23.192;2023-02-03T08:48:59;92845.31;;;0.74;72.31
64602;BME280;51013;42.630;23.192;2023-02-03T08:51:27;92848.66;;;0.79;72.33
64602;BME280;51013;42.630;23.192;2023-02-03T08:53:54;92851.53;;;0.68;71.71
64602;BME280;51013;42.630;23.192;2023-02-03T08:56:21;92853.34;;;0.67;71.10
64602;BME280;51013;42.630;23.192;2023-02-03T08:58:49;92858.53;;;0.57;72.36
64602;BME280;51013;42.630;23.192;2023-02-03T09:01:16;92857.00;;;0.46;72.15
64602;BME280;51013;42.630;23.192;2023-02-03T09:03:45;92855.69;;;0.53;72.53
64602;BME280;51013;42.630;23.192;2023-02-03T09:06:12;92833.72;;;0.46;74.34
64602;BME280;51013;42.630;23.192;2023-02-03T09:08:41;92843.00;;;0.67;72.71
64602;BME280;51013;42.630;23.192;2023-02-03T09:11:08;92841.41;;;0.82;72.31
64602;BME280;51013;42.630;23.192;2023-02-03T09:13:35;92839.81;;;0.91;73.31
64602;BME280;51013;42.630;23.192;2023-02-03T09:16:02;92841.59;;;1.00;73.10
64602;BME280;51013;42.630;23.192;2023-02-03T09:18:29;92823.22;;;1.02;70.69
64602;BME280;51013;42.630;23.192;2023-02-03T09:21:01;92848.78;;;1.24;71.44
64602;BME280;51013;42.630;23.192;2023-02-03T09:23:27;92850.81;;;1.32;71.46
64602;BME280;51013;42.630;23.192;2023-02-03T09:25:54;92850.50;;;1.39;70.74
64602;BME280;51013;42.630;23.192;2023-02-03T09:28:21;92842.72;;;1.44;69.84
64602;BME280;51013;42.630;23.192;2023-02-03T09:30:48;92806.06;;;1.22;70.73
64602;BME280;51013;42.630;23.192;2023-02-03T09:33:15;92836.19;;;1.52;70.78
64602;BME280;51013;42.630;23.192;2023-02-03T09:35:50;92825.56;;;1.58;69.41
64602;BME280;51013;42.630;23.192;2023-02-03T09:38:19;92839.16;;;1.74;69.60
64602;BME280;51013;42.630;23.192;2023-02-03T09:40:50;92844.81;;;1.82;70.33
64602;BME280;51013;42.630;23.192;2023-02-03T09:43:30;92841.19;;;1.83;67.77
64602;BME280;51013;42.630;23.192;2023-02-03T09:46:01;92833.63;;;1.86;69.27
64602;BME280;51013;42.630;23.192;2023-02-03T09:48:34;92821.63;;;2.00;65.61
64602;BME280;51013;42.630;23.192;2023-02-03T09:51:01;92829.53;;;2.14;65.42
64602;BME280;51013;42.630;23.192;2023-02-03T09:53:32;92817.50;;;2.29;66.42
64602;BME280;51013;42.630;23.192;2023-02-03T09:56:02;92829.06;;;2.42;64.72
64602;BME280;51013;42.630;23.192;2023-02-03T09:58:32;92839.56;;;2.55;65.55
64602;BME280;51013;42.630;23.192;2023-02-03T10:01:00;92832.97;;;2.68;62.11
64602;BME280;51013;42.630;23.192;2023-02-03T10:03:32;92836.41;;;2.64;61.90
64602;BME280;51013;42.630;23.192;2023-02-03T10:06:09;92824.50;;;2.57;62.07
64602;BME280;51013;42.630;23.192;2023-02-03T10:09:00;92823.41;;;2.64;62.38
64602;BME280;51013;42.630;23.192;2023-02-03T10:11:47;92828.50;;;2.74;60.81
64602;BME280;51013;42.630;23.192;2023-02-03T10:14:31;92796.16;;;2.66;61.33
64602;BME280;51013;42.630;23.192;2023-02-03T10:17:13;92825.22;;;2.87;60.26
64602;BME280;51013;42.630;23.192;2023-02-03T10:19:47;92817.91;;;2.94;61.23
64602;BME280;51013;42.630;23.192;2023-02-03T10:22:19;92811.88;;;2.99;60.53
64602;BME280;51013;42.630;23.192;2023-02-03T10:24:52;92818.41;;;2.96;61.26
64602;BME280;51013;42.630;23.192;2023-02-03T10:27:23;92806.41;;;2.76;60.50
64602;BME280;51013;42.630;23.192;2023-02-03T10:29:54;92802.38;;;2.89;61.81
64602;BME280;51013;42.630;23.192;2023-02-03T10:32:22;92803.03;;;3.00;62.11
64602;BME280;51013;42.630;23.192;2023-02-03T10:34:49;92804.94;;;2.94;60.68
64602;BME280;51013;42.630;23.192;2023-02-03T10:37:22;92782.94;;;2.38;62.18
64602;BME280;51013;42.630;23.192;2023-02-03T10:39:53;92801.09;;;2.38;64.89
64602;BME280;51013;42.630;23.192;2023-02-03T10:42:21;92802.84;;;2.19;64.40
64602;BME280;51013;42.630;23.192;2023-02-03T10:44:51;92806.88;;;2.01;62.85
64602;BME280;51013;42.630;23.192;2023-02-03T10:47:24;92789.44;;;2.07;65.56
64602;BME280;51013;42.630;23.192;2023-02-03T10:49:54;92771.69;;;1.90;63.54
64602;BME280;51013;42.630;23.192;2023-02-03T10:52:27;92807.69;;;2.26;60.81
64602;BME280;51013;42.630;23.192;2023-02-03T10:54:55;92806.22;;;2.14;61.31
64602;BME280;51013;42.630;23.192;2023-02-03T10:57:24;92807.03;;;1.80;60.67
64602;BME280;51013;42.630;23.192;2023-02-03T11:00:04;92809.84;;;1.45;57.67
64602;BME280;51013;42.630;23.192;2023-02-03T11:02:31;92811.31;;;1.56;60.12
64602;BME280;51013;42.630;23.192;2023-02-03T11:05:09;92804.28;;;1.62;58.50
64602;BME280;51013;42.630;23.192;2023-02-03T11:07:36;92800.16;;;1.60;60.04
64602;BME280;51013;42.630;23.192;2023-02-03T11:10:25;92806.34;;;1.65;56.23
64602;BME280;51013;42.630;23.192;2023-02-03T11:13:11;92810.53;;;1.55;56.64
64602;BME280;51013;42.630;23.192;2023-02-03T11:15:43;92802.00;;;1.50;54.69
64602;BME280;51013;42.630;23.192;2023-02-03T11:18:26;92806.19;;;1.46;55.62
64602;BME280;51013;42.630;23.192;2023-02-03T11:20:57;92792.72;;;1.49;55.16
64602;BME280;51013;42.630;23.192;2023-02-03T11:23:24;92787.94;;;1.66;56.20
64602;BME280;51013;42.630;23.192;2023-02-03T11:25:53;92782.47;;;1.73;57.67
64602;BME280;51013;42.630;23.192;2023-02-03T11:28:26;92755.22;;;1.80;58.79
64602;BME280;51013;42.630;23.192;2023-02-03T11:30:55;92774.25;;;1.95;57.92
64602;BME280;51013;42.630;23.192;2023-02-03T11:33:25;92762.47;;;2.08;57.64
64602;BME280;51013;42.630;23.192;2023-02-03T11:35:55;92759.47;;;2.25;58.99
64602;BME280;51013;42.630;23.192;2023-02-03T11:38:31;92758.22;;;2.46;56.72
64602;BME280;51013;42.630;23.192;2023-02-03T11:41:02;92744.38;;;2.56;57.86
64602;BME280;51013;42.630;23.192;2023-02-03T11:43:29;92748.34;;;2.72;55.37
64602;BME280;51013;42.630;23.192;2023-02-03T11:46:00;92738.50;;;2.69;56.39
64602;BME280;51013;42.630;23.192;2023-02-03T11:48:31;92746.91;;;2.85;54.88
64602;BME280;51013;42.630;23.192;2023-02-03T11:51:04;92752.09;;;2.85;55.35
64602;BME280;51013;42.630;23.192;2023-02-03T11:53:56;92749.44;;;2.90;54.81
64602;BME280;51013;42.630;23.192;2023-02-03T11:56:31;92735.50;;;3.05;54.94
64602;BME280;51013;42.630;23.192;2023-02-03T12:02:19;92762.19;;;2.87;53.91
64602;BME280;51013;42.630;23.192;2023-02-03T12:05:11;92759.25;;;2.93;55.35
64602;BME280;51013;42.630;23.192;2023-02-03T12:08:03;92747.13;;;2.89;53.45
64602;BME280;51013;42.630;23.192;2023-02-03T12:10:42;92754.19;;;2.59;52.30
64602;BME280;51013;42.630;23.192;2023-02-03T12:13:25;92761.66;;;2.66;53.98
64602;BME280;51013;42.630;23.192;2023-02-03T12:16:09;92743.28;;;2.09;52.79
64602;BME280;51013;42.630;23.192;2023-02-03T12:18:51;92754.06;;;2.21;53.81
64602;BME280;51013;42.630;23.192;2023-02-03T12:21:36;92752.09;;;2.37;52.41
64602;BME280;51013;42.630;23.192;2023-02-03T12:24:14;92754.88;;;2.16;53.23
64602;BME280;51013;42.630;23.192;2023-02-03T12:26:49;92742.47;;;2.13;53.82
64602;BME280;51013;42.630;23.192;2023-02-03T12:29:26;92748.78;;;2.31;54.64
64602;BME280;51013;42.630;23.192;2023-02-03T12:32:02;92750.06;;;2.34;54.62
64602;BME280;51013;42.630;23.192;2023-02-03T12:34:33;92750.06;;;2.34;54.04
64602;BME280;51013;42.630;23.192;2023-02-03T12:37:04;92747.56;;;2.24;54.13
64602;BME280;51013;42.630;23.192;2023-02-03T12:39:37;92748.72;;;2.36;54.51
64602;BME280;51013;42.630;23.192;2023-02-03T12:42:12;92751.97;;;2.47;55.37
64602;BME280;51013;42.630;23.192;2023-02-03T12:44:47;92739.50;;;2.49;55.31
64602;BME280;51013;42.630;23.192;2023-02-03T12:47:23;92745.19;;;2.51;55.11
64602;BME280;51013;42.630;23.192;2023-02-03T12:49:54;92748.34;;;2.72;55.26
64602;BME280;51013;42.630;23.192;2023-02-03T12:52:26;92747.63;;;2.67;53.73
64602;BME280;51013;42.630;23.192;2023-02-03T12:55:00;92744.50;;;2.46;54.13
64602;BME280;51013;42.630;23.192;2023-02-03T12:57:34;92743.16;;;2.48;57.49
64602;BME280;51013;42.630;23.192;2023-02-03T13:00:17;92732.44;;;2.55;55.59
64602;BME280;51013;42.630;23.192;2023-02-03T13:02:55;92737.53;;;2.41;55.76
64602;BME280;51013;42.630;23.192;2023-02-03T13:05:28;92721.91;;;2.22;54.56
64602;BME280;51013;42.630;23.192;2023-02-03T13:08:01;92719.44;;;2.36;55.36
64602;BME280;51013;42.630;23.192;2023-02-03T13:10:35;92719.34;;;2.89;55.25
64602;BME280;51013;42.630;23.192;2023-02-03T13:13:04;92722.84;;;3.36;53.55
64602;BME280;51013;42.630;23.192;2023-02-03T13:15:38;92722.59;;;3.71;50.87
64602;BME280;51013;42.630;23.192;2023-02-03T13:18:14;92714.38;;;3.83;49.34
64602;BME280;51013;42.630;23.192;2023-02-03T13:20:44;92711.53;;;3.98;48.37
64602;BME280;51013;42.630;23.192;2023-02-03T13:23:13;92724.63;;;4.07;48.54
64602;BME280;51013;42.630;23.192;2023-02-03T13:25:49;92714.00;;;3.89;48.25
64602;BME280;51013;42.630;23.192;2023-02-03T13:28:31;92717.25;;;4.14;50.17
64602;BME280;51013;42.630;23.192;2023-02-03T13:31:19;92718.91;;;3.91;48.72
64602;BME280;51013;42.630;23.192;2023-02-03T13:34:13;92716.63;;;3.70;51.04
64602;BME280;51013;42.630;23.192;2023-02-03T13:39:51;92718.09;;;3.44;50.48
64602;BME280;51013;42.630;23.192;2023-02-03T13:42:24;92713.81;;;3.34;51.77
64602;BME280;51013;42.630;23.192;2023-02-03T13:44:54;92714.84;;;2.95;51.81
64602;BME280;51013;42.630;23.192;2023-02-03T13:47:26;92718.31;;;3.09;52.17
64602;BME280;51013;42.630;23.192;2023-02-03T13:49:57;92722.31;;;3.20;51.84
64602;BME280;51013;42.630;23.192;2023-02-03T13:52:29;92720.63;;;3.11;52.07
64602;BME280;51013;42.630;23.192;2023-02-03T13:54:58;92726.72;;;3.01;51.46
64602;BME280;51013;42.630;23.192;2023-02-03T13:57:31;92719.84;;;3.10;52.21
64602;BME280;51013;42.630;23.192;2023-02-03T14:00:01;92733.59;;;3.11;53.29
64602;BME280;51013;42.630;23.192;2023-02-03T14:02:40;92709.03;;;3.03;54.29
64602;BME280;51013;42.630;23.192;2023-02-03T14:05:38;92727.84;;;2.95;52.51
64602;BME280;51013;42.630;23.192;2023-02-03T14:11:39;92723.53;;;2.85;51.83
64602;BME280;51013;42.630;23.192;2023-02-03T14:14:44;92728.31;;;2.78;53.06
64602;BME280;51013;42.630;23.192;2023-02-03T14:17:57;92715.03;;;2.79;53.14
64602;BME280;51013;42.630;23.192;2023-02-03T14:23:39;92715.78;;;2.61;55.86
64602;BME280;51013;42.630;23.192;2023-02-03T14:26:15;92713.38;;;2.22;56.66
64602;BME280;51013;42.630;23.192;2023-02-03T14:28:44;92714.25;;;2.12;56.86